KCRE/CRE METAR and TAF weather

Enter ICAO airport designator
Station Type Date Time Source
KCRE METAR 2019/08/25 17:53 UTC NOAA

KCRE 251753Z 35007KT 10SM OVC012 23/20 A3004 RMK AO1 SLP173 T02330200 10239 20206 58004


Station Type Date Time Source
KCRE Decoded METAR 2019/08/25 17:53 UTC NOAA

Station name not available
Aug 25, 2019 - 01:53 PM EDT / 2019.08.25 1753 UTC
Wind: from the N (350 degrees) at 8 MPH (7 KT):0
Visibility: 10 mile(s):0
Sky conditions: overcast
Temperature: 73.9 F (23.3 C)
Dew Point: 68.0 F (20.0 C)
Relative Humidity: 81%
Pressure (altimeter): 30.04 in. Hg (1017 hPa)
Pressure tendency: 0.01 inches (0.4 hPa) lower than three hours ago
ob: KCRE 251753Z 35007KT 10SM OVC012 23/20 A3004 RMK AO1 SLP173 T02330200 10239 20206 58004
cycle: 18

Station Type Date Time Source
KCRE TAF 2019/08/25 18:22 UTC NOAA

TAF KCRE 251720Z 2518/2618 04011G17KT P6SM BKN020
FM260100 03010KT P6SM BKN035
FM261200 02015KT P6SM BKN015
FM261500 03015G20KT P6SM OVC050

Example: see airport list